sensor_id;sensor_type;location;lat;lon;timestamp;temperature;humidity
25949;DHT22;13961;51.178;4.448;2022-12-29T00:02:05;11.30;99.90
25949;DHT22;13961;51.178;4.448;2022-12-29T00:04:30;11.40;99.90
25949;DHT22;13961;51.178;4.448;2022-12-29T00:06:56;11.40;99.90
25949;DHT22;13961;51.178;4.448;2022-12-29T00:09:22;11.40;99.90
25949;DHT22;13961;51.178;4.448;2022-12-29T00:11:48;11.50;99.90
25949;DHT22;13961;51.178;4.448;2022-12-29T00:14:15;11.60;99.90
25949;DHT22;13961;51.178;4.448;2022-12-29T00:17:00;11.50;99.90
25949;DHT22;13961;51.178;4.448;2022-12-29T00:19:26;11.50;99.90
25949;DHT22;13961;51.178;4.448;2022-12-29T00:22:12;11.60;99.90
25949;DHT22;13961;51.178;4.448;2022-12-29T00:24:57;11.50;99.90
25949;DHT22;13961;51.178;4.448;2022-12-29T00:27:41;11.60;99.90
25949;DHT22;13961;51.178;4.448;2022-12-29T00:30:26;11.60;99.90
25949;DHT22;13961;51.178;4.448;2022-12-29T00:33:12;11.60;99.90
25949;DHT22;13961;51.178;4.448;2022-12-29T00:38:46;11.70;99.90
25949;DHT22;13961;51.178;4.448;2022-12-29T00:41:32;11.70;99.90
25949;DHT22;13961;51.178;4.448;2022-12-29T00:44:16;11.80;99.90
25949;DHT22;13961;51.178;4.448;2022-12-29T00:46:42;11.90;99.90
25949;DHT22;13961;51.178;4.448;2022-12-29T00:49:11;11.90;99.90
25949;DHT22;13961;51.178;4.448;2022-12-29T00:51:58;12.00;99.90
25949;DHT22;13961;51.178;4.448;2022-12-29T00:54:25;12.00;99.90
25949;DHT22;13961;51.178;4.448;2022-12-29T00:56:51;12.00;99.90
25949;DHT22;13961;51.178;4.448;2022-12-29T00:59:18;12.10;99.90
25949;DHT22;13961;51.178;4.448;2022-12-29T01:01:44;12.00;99.90
25949;DHT22;13961;51.178;4.448;2022-12-29T01:04:10;12.00;99.90
25949;DHT22;13961;51.178;4.448;2022-12-29T01:06:38;12.00;99.90
25949;DHT22;13961;51.178;4.448;2022-12-29T01:09:05;11.90;99.90
25949;DHT22;13961;51.178;4.448;2022-12-29T01:11:49;12.00;99.90
25949;DHT22;13961;51.178;4.448;2022-12-29T01:14:15;12.00;99.90
25949;DHT22;13961;51.178;4.448;2022-12-29T01:16:41;12.00;99.90
25949;DHT22;13961;51.178;4.448;2022-12-29T01:19:07;12.00;99.90
25949;DHT22;13961;51.178;4.448;2022-12-29T01:21:33;12.00;99.90
25949;DHT22;13961;51.178;4.448;2022-12-29T01:23:59;12.10;99.90
25949;DHT22;13961;51.178;4.448;2022-12-29T01:26:24;12.10;99.90
25949;DHT22;13961;51.178;4.448;2022-12-29T01:28:50;12.10;99.90
25949;DHT22;13961;51.178;4.448;2022-12-29T01:31:16;12.10;99.90
25949;DHT22;13961;51.178;4.448;2022-12-29T01:33:42;12.10;99.90
25949;DHT22;13961;51.178;4.448;2022-12-29T01:36:11;12.10;99.90
25949;DHT22;13961;51.178;4.448;2022-12-29T01:38:38;12.20;99.90
25949;DHT22;13961;51.178;4.448;2022-12-29T01:41:06;12.10;99.90
25949;DHT22;13961;51.178;4.448;2022-12-29T01:43:43;12.20;99.90
25949;DHT22;13961;51.178;4.448;2022-12-29T01:46:34;12.20;99.90
25949;DHT22;13961;51.178;4.448;2022-12-29T01:51:44;12.10;99.90
25949;DHT22;13961;51.178;4.448;2022-12-29T01:54:23;12.10;99.90
25949;DHT22;13961;51.178;4.448;2022-12-29T01:56:51;12.10;99.90
25949;DHT22;13961;51.178;4.448;2022-12-29T01:59:21;12.00;99.90
25949;DHT22;13961;51.178;4.448;2022-12-29T02:01:49;11.90;99.90
25949;DHT22;13961;51.178;4.448;2022-12-29T02:04:15;11.90;99.90
25949;DHT22;13961;51.178;4.448;2022-12-29T02:06:49;11.90;99.90
25949;DHT22;13961;51.178;4.448;2022-12-29T02:09:16;11.80;99.90
25949;DHT22;13961;51.178;4.448;2022-12-29T02:11:42;11.70;99.90
25949;DHT22;13961;51.178;4.448;2022-12-29T02:14:10;11.70;99.90
25949;DHT22;13961;51.178;4.448;2022-12-29T02:19:41;11.60;99.90
25949;DHT22;13961;51.178;4.448;2022-12-29T02:25:06;11.80;99.90
25949;DHT22;13961;51.178;4.448;2022-12-29T02:30:27;11.80;99.90
25949;DHT22;13961;51.178;4.448;2022-12-29T02:46:50;11.60;99.90
25949;DHT22;13961;51.178;4.448;2022-12-29T02:50:15;11.50;99.90
25949;DHT22;13961;51.178;4.448;2022-12-29T02:52:28;11.60;99.90
25949;DHT22;13961;51.178;4.448;2022-12-29T02:54:55;11.60;99.90
25949;DHT22;13961;51.178;4.448;2022-12-29T03:00:09;11.60;99.90
25949;DHT22;13961;51.178;4.448;2022-12-29T03:06:20;11.60;99.90
25949;DHT22;13961;51.178;4.448;2022-12-29T03:08:17;11.60;99.90
25949;DHT22;13961;51.178;4.448;2022-12-29T03:13:49;11.50;99.90
25949;DHT22;13961;51.178;4.448;2022-12-29T03:16:46;11.50;99.90
25949;DHT22;13961;51.178;4.448;2022-12-29T03:19:26;11.50;99.90
25949;DHT22;13961;51.178;4.448;2022-12-29T03:24:43;11.40;99.90
25949;DHT22;13961;51.178;4.448;2022-12-29T03:27:14;11.50;99.90
25949;DHT22;13961;51.178;4.448;2022-12-29T03:29:54;11.50;99.90
25949;DHT22;13961;51.178;4.448;2022-12-29T03:32:22;11.60;99.90
25949;DHT22;13961;51.178;4.448;2022-12-29T03:34:50;11.60;99.90
25949;DHT22;13961;51.178;4.448;2022-12-29T03:37:20;11.50;99.90
25949;DHT22;13961;51.178;4.448;2022-12-29T03:39:48;11.30;99.90
25949;DHT22;13961;51.178;4.448;2022-12-29T03:42:17;11.40;99.90
25949;DHT22;13961;51.178;4.448;2022-12-29T03:44:44;11.20;99.90
25949;DHT22;13961;51.178;4.448;2022-12-29T03:47:11;11.40;99.90
25949;DHT22;13961;51.178;4.448;2022-12-29T03:49:38;11.30;99.90
25949;DHT22;13961;51.178;4.448;2022-12-29T03:52:04;11.20;99.90
25949;DHT22;13961;51.178;4.448;2022-12-29T03:54:30;11.20;99.90
25949;DHT22;13961;51.178;4.448;2022-12-29T03:56:55;11.20;99.90
25949;DHT22;13961;51.178;4.448;2022-12-29T03:59:21;11.20;99.90
25949;DHT22;13961;51.178;4.448;2022-12-29T04:01:48;11.10;99.90
25949;DHT22;13961;51.178;4.448;2022-12-29T04:04:18;11.20;99.90
25949;DHT22;13961;51.178;4.448;2022-12-29T04:06:44;11.30;99.90
25949;DHT22;13961;51.178;4.448;2022-12-29T04:09:10;11.20;99.90
25949;DHT22;13961;51.178;4.448;2022-12-29T04:11:36;11.10;99.90
25949;DHT22;13961;51.178;4.448;2022-12-29T04:14:03;11.10;99.90
25949;DHT22;13961;51.178;4.448;2022-12-29T04:16:28;11.10;99.90
25949;DHT22;13961;51.178;4.448;2022-12-29T04:18:54;11.00;99.90
25949;DHT22;13961;51.178;4.448;2022-12-29T04:21:19;10.90;99.90
25949;DHT22;13961;51.178;4.448;2022-12-29T04:23:45;10.90;99.90
25949;DHT22;13961;51.178;4.448;2022-12-29T04:26:11;10.90;99.90
25949;DHT22;13961;51.178;4.448;2022-12-29T04:28:36;10.90;99.90
25949;DHT22;13961;51.178;4.448;2022-12-29T04:31:03;10.90;99.90
25949;DHT22;13961;51.178;4.448;2022-12-29T04:33:29;10.90;99.90
25949;DHT22;13961;51.178;4.448;2022-12-29T04:35:55;11.00;99.90
25949;DHT22;13961;51.178;4.448;2022-12-29T04:38:22;11.10;99.90
25949;DHT22;13961;51.178;4.448;2022-12-29T04:40:49;11.20;99.90
25949;DHT22;13961;51.178;4.448;2022-12-29T04:43:16;11.10;99.90
25949;DHT22;13961;51.178;4.448;2022-12-29T04:45:46;11.30;99.90
25949;DHT22;13961;51.178;4.448;2022-12-29T04:48:12;11.20;99.90
25949;DHT22;13961;51.178;4.448;2022-12-29T04:50:39;11.20;99.90
25949;DHT22;13961;51.178;4.448;2022-12-29T04:53:05;11.20;99.90
25949;DHT22;13961;51.178;4.448;2022-12-29T04:55:30;11.20;99.90
25949;DHT22;13961;51.178;4.448;2022-12-29T04:57:57;11.20;99.90
25949;DHT22;13961;51.178;4.448;2022-12-29T05:00:23;11.20;99.90
25949;DHT22;13961;51.178;4.448;2022-12-29T05:02:49;11.20;99.90
25949;DHT22;13961;51.178;4.448;2022-12-29T05:05:14;11.30;99.90
25949;DHT22;13961;51.178;4.448;2022-12-29T05:07:40;11.30;99.90
25949;DHT22;13961;51.178;4.448;2022-12-29T05:10:06;11.60;99.90
25949;DHT22;13961;51.178;4.448;2022-12-29T05:12:34;11.30;99.90
25949;DHT22;13961;51.178;4.448;2022-12-29T05:15:00;11.50;99.90
25949;DHT22;13961;51.178;4.448;2022-12-29T05:17:26;11.20;99.90
25949;DHT22;13961;51.178;4.448;2022-12-29T05:19:51;11.20;99.90
25949;DHT22;13961;51.178;4.448;2022-12-29T05:22:18;11.20;99.90
25949;DHT22;13961;51.178;4.448;2022-12-29T05:24:44;11.10;99.90
25949;DHT22;13961;51.178;4.448;2022-12-29T05:27:09;11.10;99.90
25949;DHT22;13961;51.178;4.448;2022-12-29T05:29:35;11.30;99.90
25949;DHT22;13961;51.178;4.448;2022-12-29T05:32:02;11.00;99.90
25949;DHT22;13961;51.178;4.448;2022-12-29T05:34:27;11.10;99.90
25949;DHT22;13961;51.178;4.448;2022-12-29T05:36:53;11.10;99.90
25949;DHT22;13961;51.178;4.448;2022-12-29T05:39:19;11.10;99.90
25949;DHT22;13961;51.178;4.448;2022-12-29T05:41:44;11.20;99.90
25949;DHT22;13961;51.178;4.448;2022-12-29T05:44:11;11.20;99.90
25949;DHT22;13961;51.178;4.448;2022-12-29T05:46:36;11.30;99.90
25949;DHT22;13961;51.178;4.448;2022-12-29T05:49:02;11.30;99.90
25949;DHT22;13961;51.178;4.448;2022-12-29T05:51:28;11.30;99.90
25949;DHT22;13961;51.178;4.448;2022-12-29T05:53:53;11.40;99.90
25949;DHT22;13961;51.178;4.448;2022-12-29T05:56:19;11.30;99.90
25949;DHT22;13961;51.178;4.448;2022-12-29T05:58:45;11.30;99.90
25949;DHT22;13961;51.178;4.448;2022-12-29T06:01:10;11.20;99.90
25949;DHT22;13961;51.178;4.448;2022-12-29T06:03:36;11.20;99.90
25949;DHT22;13961;51.178;4.448;2022-12-29T06:06:03;11.20;99.90
25949;DHT22;13961;51.178;4.448;2022-12-29T06:08:29;11.20;99.90
25949;DHT22;13961;51.178;4.448;2022-12-29T06:10:54;11.20;99.90
25949;DHT22;13961;51.178;4.448;2022-12-29T06:13:20;11.10;99.90
25949;DHT22;13961;51.178;4.448;2022-12-29T06:15:48;11.20;99.90
25949;DHT22;13961;51.178;4.448;2022-12-29T06:18:14;11.20;99.90
25949;DHT22;13961;51.178;4.448;2022-12-29T06:20:40;11.10;99.90
25949;DHT22;13961;51.178;4.448;2022-12-29T06:23:06;11.10;99.90
25949;DHT22;13961;51.178;4.448;2022-12-29T06:25:32;11.10;99.90
25949;DHT22;13961;51.178;4.448;2022-12-29T06:27:59;11.10;99.90
25949;DHT22;13961;51.178;4.448;2022-12-29T06:30:25;11.10;99.90
25949;DHT22;13961;51.178;4.448;2022-12-29T06:32:51;11.00;99.90
25949;DHT22;13961;51.178;4.448;2022-12-29T06:35:17;11.00;99.90
25949;DHT22;13961;51.178;4.448;2022-12-29T06:37:42;11.00;99.90
25949;DHT22;13961;51.178;4.448;2022-12-29T06:40:09;11.10;99.90
25949;DHT22;13961;51.178;4.448;2022-12-29T06:42:36;11.10;99.90
25949;DHT22;13961;51.178;4.448;2022-12-29T06:45:02;11.10;99.90
25949;DHT22;13961;51.178;4.448;2022-12-29T06:47:28;11.00;99.90
25949;DHT22;13961;51.178;4.448;2022-12-29T06:49:54;11.10;99.90
25949;DHT22;13961;51.178;4.448;2022-12-29T06:52:20;11.10;99.90
25949;DHT22;13961;51.178;4.448;2022-12-29T06:54:46;11.20;99.90
25949;DHT22;13961;51.178;4.448;2022-12-29T06:57:12;11.20;99.90
25949;DHT22;13961;51.178;4.448;2022-12-29T06:59:38;11.40;99.90
25949;DHT22;13961;51.178;4.448;2022-12-29T07:02:04;11.20;99.90
25949;DHT22;13961;51.178;4.448;2022-12-29T07:04:30;11.10;99.90
25949;DHT22;13961;51.178;4.448;2022-12-29T07:06:56;11.20;99.90
25949;DHT22;13961;51.178;4.448;2022-12-29T07:09:22;11.20;99.90
25949;DHT22;13961;51.178;4.448;2022-12-29T07:11:47;11.30;99.90
25949;DHT22;13961;51.178;4.448;2022-12-29T07:14:13;11.20;99.90
25949;DHT22;13961;51.178;4.448;2022-12-29T07:16:39;11.30;99.90
25949;DHT22;13961;51.178;4.448;2022-12-29T07:19:07;11.20;99.90
25949;DHT22;13961;51.178;4.448;2022-12-29T07:21:33;11.30;99.90
25949;DHT22;13961;51.178;4.448;2022-12-29T07:23:58;11.20;99.90
25949;DHT22;13961;51.178;4.448;2022-12-29T07:26:24;11.20;99.90
25949;DHT22;13961;51.178;4.448;2022-12-29T07:28:50;11.10;99.90
25949;DHT22;13961;51.178;4.448;2022-12-29T07:31:18;11.10;99.90
25949;DHT22;13961;51.178;4.448;2022-12-29T07:33:44;11.00;99.90
25949;DHT22;13961;51.178;4.448;2022-12-29T07:36:11;11.00;99.90
25949;DHT22;13961;51.178;4.448;2022-12-29T07:38:37;11.20;99.90
25949;DHT22;13961;51.178;4.448;2022-12-29T07:41:03;11.20;99.90
25949;DHT22;13961;51.178;4.448;2022-12-29T07:43:29;11.20;99.90
25949;DHT22;13961;51.178;4.448;2022-12-29T07:45:54;11.30;99.90
25949;DHT22;13961;51.178;4.448;2022-12-29T07:48:20;11.30;99.90
25949;DHT22;13961;51.178;4.448;2022-12-29T07:50:46;11.40;99.90
25949;DHT22;13961;51.178;4.448;2022-12-29T07:53:11;11.40;99.90
25949;DHT22;13961;51.178;4.448;2022-12-29T07:55:37;11.40;99.90
25949;DHT22;13961;51.178;4.448;2022-12-29T07:58:03;11.30;99.90
25949;DHT22;13961;51.178;4.448;2022-12-29T08:00:29;11.40;99.90
25949;DHT22;13961;51.178;4.448;2022-12-29T08:02:54;11.40;99.90
25949;DHT22;13961;51.178;4.448;2022-12-29T08:05:20;11.40;99.90
25949;DHT22;13961;51.178;4.448;2022-12-29T08:07:46;11.50;99.90
25949;DHT22;13961;51.178;4.448;2022-12-29T08:10:13;11.40;99.90
25949;DHT22;13961;51.178;4.448;2022-12-29T08:12:40;11.40;99.90
25949;DHT22;13961;51.178;4.448;2022-12-29T08:15:06;11.40;99.90
25949;DHT22;13961;51.178;4.448;2022-12-29T08:17:32;11.30;99.90
25949;DHT22;13961;51.178;4.448;2022-12-29T08:19:58;11.40;99.90
25949;DHT22;13961;51.178;4.448;2022-12-29T08:22:24;11.30;99.90
25949;DHT22;13961;51.178;4.448;2022-12-29T08:24:51;11.30;99.90
25949;DHT22;13961;51.178;4.448;2022-12-29T08:27:17;11.40;99.90
25949;DHT22;13961;51.178;4.448;2022-12-29T08:29:43;11.50;99.90
25949;DHT22;13961;51.178;4.448;2022-12-29T08:32:09;11.40;99.90
25949;DHT22;13961;51.178;4.448;2022-12-29T08:34:34;11.40;99.90
25949;DHT22;13961;51.178;4.448;2022-12-29T08:37:00;11.40;99.90
25949;DHT22;13961;51.178;4.448;2022-12-29T08:39:26;11.40;99.90
25949;DHT22;13961;51.178;4.448;2022-12-29T08:41:52;11.30;99.90
25949;DHT22;13961;51.178;4.448;2022-12-29T08:44:18;11.20;99.90
25949;DHT22;13961;51.178;4.448;2022-12-29T08:46:44;11.20;99.90
25949;DHT22;13961;51.178;4.448;2022-12-29T08:49:09;11.10;99.90
25949;DHT22;13961;51.178;4.448;2022-12-29T08:51:35;11.00;99.90
25949;DHT22;13961;51.178;4.448;2022-12-29T08:54:01;10.90;99.90
25949;DHT22;13961;51.178;4.448;2022-12-29T08:56:27;10.90;99.90
25949;DHT22;13961;51.178;4.448;2022-12-29T08:58:53;10.90;99.90
25949;DHT22;13961;51.178;4.448;2022-12-29T09:01:19;10.80;99.90
25949;DHT22;13961;51.178;4.448;2022-12-29T09:03:45;10.80;99.90
25949;DHT22;13961;51.178;4.448;2022-12-29T09:06:12;10.90;99.90
25949;DHT22;13961;51.178;4.448;2022-12-29T09:08:37;10.80;99.90
25949;DHT22;13961;51.178;4.448;2022-12-29T09:11:29;10.70;99.90
25949;DHT22;13961;51.178;4.448;2022-12-29T09:13:55;10.70;99.90
25949;DHT22;13961;51.178;4.448;2022-12-29T09:16:23;10.70;99.90
25949;DHT22;13961;51.178;4.448;2022-12-29T09:18:49;10.70;99.90
25949;DHT22;13961;51.178;4.448;2022-12-29T09:21:15;10.60;99.90
25949;DHT22;13961;51.178;4.448;2022-12-29T09:23:41;10.80;99.90
25949;DHT22;13961;51.178;4.448;2022-12-29T09:26:07;10.60;99.90
25949;DHT22;13961;51.178;4.448;2022-12-29T09:28:33;10.50;99.90
25949;DHT22;13961;51.178;4.448;2022-12-29T09:31:00;10.50;99.90
25949;DHT22;13961;51.178;4.448;2022-12-29T09:33:26;10.60;99.90
25949;DHT22;13961;51.178;4.448;2022-12-29T09:35:57;10.60;99.90
25949;DHT22;13961;51.178;4.448;2022-12-29T09:38:24;10.60;99.90
25949;DHT22;13961;51.178;4.448;2022-12-29T09:40:53;10.50;99.90
25949;DHT22;13961;51.178;4.448;2022-12-29T09:46:46;10.60;99.90
25949;DHT22;13961;51.178;4.448;2022-12-29T09:51:52;10.90;99.90
25949;DHT22;13961;51.178;4.448;2022-12-29T09:56:59;10.70;99.90
25949;DHT22;13961;51.178;4.448;2022-12-29T09:59:41;10.80;99.90
25949;DHT22;13961;51.178;4.448;2022-12-29T10:02:34;10.70;99.90
25949;DHT22;13961;51.178;4.448;2022-12-29T10:05:02;10.80;99.90
25949;DHT22;13961;51.178;4.448;2022-12-29T10:07:38;10.80;99.90
25949;DHT22;13961;51.178;4.448;2022-12-29T10:15:53;10.70;99.90
25949;DHT22;13961;51.178;4.448;2022-12-29T10:23:51;10.80;99.90
25949;DHT22;13961;51.178;4.448;2022-12-29T10:26:20;10.70;99.90
25949;DHT22;13961;51.178;4.448;2022-12-29T10:29:04;10.80;99.90
25949;DHT22;13961;51.178;4.448;2022-12-29T10:32:25;10.60;99.90
25949;DHT22;13961;51.178;4.448;2022-12-29T10:34:30;10.50;99.90
25949;DHT22;13961;51.178;4.448;2022-12-29T10:37:04;10.40;99.90
25949;DHT22;13961;51.178;4.448;2022-12-29T10:39:49;10.50;99.90
25949;DHT22;13961;51.178;4.448;2022-12-29T10:42:40;10.70;99.90
25949;DHT22;13961;51.178;4.448;2022-12-29T10:45:13;10.70;99.90
25949;DHT22;13961;51.178;4.448;2022-12-29T10:50:19;10.90;99.90
25949;DHT22;13961;51.178;4.448;2022-12-29T10:52:46;10.90;99.90
25949;DHT22;13961;51.178;4.448;2022-12-29T10:55:17;10.90;99.90
25949;DHT22;13961;51.178;4.448;2022-12-29T10:57:45;11.00;99.90
25949;DHT22;13961;51.178;4.448;2022-12-29T11:00:13;10.90;99.90
25949;DHT22;13961;51.178;4.448;2022-12-29T11:08:03;11.00;99.90
25949;DHT22;13961;51.178;4.448;2022-12-29T11:10:38;11.10;99.90
25949;DHT22;13961;51.178;4.448;2022-12-29T11:13:27;11.20;99.90
25949;DHT22;13961;51.178;4.448;2022-12-29T11:15:53;11.30;99.90
25949;DHT22;13961;51.178;4.448;2022-12-29T11:18:26;11.20;99.90
25949;DHT22;13961;51.178;4.448;2022-12-29T11:20:57;11.20;99.90
25949;DHT22;13961;51.178;4.448;2022-12-29T11:23:43;11.30;99.90
25949;DHT22;13961;51.178;4.448;2022-12-29T11:26:21;11.40;99.90
25949;DHT22;13961;51.178;4.448;2022-12-29T11:29:20;11.40;99.90
25949;DHT22;13961;51.178;4.448;2022-12-29T11:31:57;11.50;99.90
25949;DHT22;13961;51.178;4.448;2022-12-29T11:34:33;11.50;99.90
25949;DHT22;13961;51.178;4.448;2022-12-29T11:37:27;11.60;99.90
25949;DHT22;13961;51.178;4.448;2022-12-29T11:39:59;11.60;99.90
25949;DHT22;13961;51.178;4.448;2022-12-29T11:42:37;11.60;99.90
25949;DHT22;13961;51.178;4.448;2022-12-29T11:45:16;11.70;99.90
25949;DHT22;13961;51.178;4.448;2022-12-29T11:47:45;11.70;99.90
25949;DHT22;13961;51.178;4.448;2022-12-29T11:50:21;11.80;99.90
25949;DHT22;13961;51.178;4.448;2022-12-29T11:52:49;11.70;99.90
25949;DHT22;13961;51.178;4.448;2022-12-29T11:55:21;11.70;99.90
25949;DHT22;13961;51.178;4.448;2022-12-29T11:57:50;11.60;99.90
25949;DHT22;13961;51.178;4.448;2022-12-29T12:00:22;11.60;99.90
25949;DHT22;13961;51.178;4.448;2022-12-29T12:07:59;11.90;99.90
25949;DHT22;13961;51.178;4.448;2022-12-29T12:10:32;11.80;99.90
25949;DHT22;13961;51.178;4.448;2022-12-29T12:13:08;11.80;99.90
25949;DHT22;13961;51.178;4.448;2022-12-29T12:15:44;11.80;99.90
25949;DHT22;13961;51.178;4.448;2022-12-29T12:18:22;11.70;99.90
25949;DHT22;13961;51.178;4.448;2022-12-29T12:20:57;11.50;99.90
25949;DHT22;13961;51.178;4.448;2022-12-29T12:23:30;11.50;99.90
25949;DHT22;13961;51.178;4.448;2022-12-29T12:26:14;11.50;99.90
25949;DHT22;13961;51.178;4.448;2022-12-29T12:29:01;11.40;99.90
25949;DHT22;13961;51.178;4.448;2022-12-29T12:34:16;11.20;99.90
25949;DHT22;13961;51.178;4.448;2022-12-29T12:39:27;10.90;99.90
25949;DHT22;13961;51.178;4.448;2022-12-29T12:42:09;10.80;99.90
25949;DHT22;13961;51.178;4.448;2022-12-29T12:50:55;10.60;99.90
25949;DHT22;13961;51.178;4.448;2022-12-29T12:53:41;10.70;99.90
25949;DHT22;13961;51.178;4.448;2022-12-29T13:04:52;10.80;99.90
25949;DHT22;13961;51.178;4.448;2022-12-29T13:13:25;10.50;99.90
25949;DHT22;13961;51.178;4.448;2022-12-29T13:16:14;10.60;99.90
25949;DHT22;13961;51.178;4.448;2022-12-29T13:21:54;11.10;99.90
25949;DHT22;13961;51.178;4.448;2022-12-29T13:30:13;10.80;99.90
25949;DHT22;13961;51.178;4.448;2022-12-29T13:38:46;10.80;99.90
25949;DHT22;13961;51.178;4.448;2022-12-29T13:41:25;10.70;99.90
25949;DHT22;13961;51.178;4.448;2022-12-29T13:43:54;10.70;99.90
25949;DHT22;13961;51.178;4.448;2022-12-29T13:46:35;10.80;99.90
25949;DHT22;13961;51.178;4.448;2022-12-29T13:49:08;10.70;99.90
25949;DHT22;13961;51.178;4.448;2022-12-29T13:51:47;10.80;99.90
25949;DHT22;13961;51.178;4.448;2022-12-29T13:54:34;10.90;99.90
25949;DHT22;13961;51.178;4.448;2022-12-29T13:59:53;10.90;99.90
25949;DHT22;13961;51.178;4.448;2022-12-29T14:05:00;10.80;99.90
25949;DHT22;13961;51.178;4.448;2022-12-29T14:07:26;10.90;99.90
25949;DHT22;13961;51.178;4.448;2022-12-29T14:09:55;10.60;99.90
25949;DHT22;13961;51.178;4.448;2022-12-29T14:12:40;10.60;99.90
25949;DHT22;13961;51.178;4.448;2022-12-29T14:17:35;10.60;99.90
25949;DHT22;13961;51.178;4.448;2022-12-29T14:20:02;10.40;99.90
25949;DHT22;13961;51.178;4.448;2022-12-29T14:22:29;10.30;99.90
25949;DHT22;13961;51.178;4.448;2022-12-29T14:24:55;10.40;99.90
25949;DHT22;13961;51.178;4.448;2022-12-29T14:29:48;10.50;99.90
25949;DHT22;13961;51.178;4.448;2022-12-29T14:34:47;10.40;99.90
25949;DHT22;13961;51.178;4.448;2022-12-29T14:37:33;10.30;99.90
25949;DHT22;13961;51.178;4.448;2022-12-29T14:40:24;10.20;99.90
25949;DHT22;13961;51.178;4.448;2022-12-29T14:42:53;10.30;99.90
25949;DHT22;13961;51.178;4.448;2022-12-29T14:47:48;9.90;99.90
25949;DHT22;13961;51.178;4.448;2022-12-29T14:50:15;9.90;99.90
25949;DHT22;13961;51.178;4.448;2022-12-29T14:52:53;10.10;99.90
25949;DHT22;13961;51.178;4.448;2022-12-29T14:55:44;9.90;99.90
25949;DHT22;13961;51.178;4.448;2022-12-29T14:58:32;9.90;99.90
25949;DHT22;13961;51.178;4.448;2022-12-29T15:01:03;9.90;99.90
25949;DHT22;13961;51.178;4.448;2022-12-29T15:03:49;9.90;99.90
25949;DHT22;13961;51.178;4.448;2022-12-29T15:06:17;9.90;99.90
25949;DHT22;13961;51.178;4.448;2022-12-29T15:14:54;9.70;99.90
25949;DHT22;13961;51.178;4.448;2022-12-29T15:17:29;9.70;99.90
25949;DHT22;13961;51.178;4.448;2022-12-29T15:19:57;9.70;99.90
25949;DHT22;13961;51.178;4.448;2022-12-29T15:22:23;9.70;99.90
25949;DHT22;13961;51.178;4.448;2022-12-29T15:24:51;9.70;99.90
25949;DHT22;13961;51.178;4.448;2022-12-29T15:27:23;9.70;99.90
25949;DHT22;13961;51.178;4.448;2022-12-29T15:29:59;9.70;99.90
25949;DHT22;13961;51.178;4.448;2022-12-29T15:32:28;10.00;99.90
25949;DHT22;13961;51.178;4.448;2022-12-29T15:34:56;9.70;99.90
25949;DHT22;13961;51.178;4.448;2022-12-29T15:37:27;9.70;99.90
25949;DHT22;13961;51.178;4.448;2022-12-29T15:39:54;9.60;99.90
25949;DHT22;13961;51.178;4.448;2022-12-29T15:44:54;9.60;99.90
25949;DHT22;13961;51.178;4.448;2022-12-29T15:47:22;9.60;99.90
25949;DHT22;13961;51.178;4.448;2022-12-29T15:49:52;9.60;99.90
25949;DHT22;13961;51.178;4.448;2022-12-29T15:52:22;9.60;99.90
25949;DHT22;13961;51.178;4.448;2022-12-29T15:54:51;9.70;99.90
25949;DHT22;13961;51.178;4.448;2022-12-29T15:57:42;9.70;99.90
25949;DHT22;13961;51.178;4.448;2022-12-29T16:00:22;9.80;99.90
25949;DHT22;13961;51.178;4.448;2022-12-29T16:02:49;9.80;99.90
25949;DHT22;13961;51.178;4.448;2022-12-29T16:05:18;9.70;99.90
25949;DHT22;13961;51.178;4.448;2022-12-29T16:07:56;9.60;99.90
25949;DHT22;13961;51.178;4.448;2022-12-29T16:10:36;9.50;99.90
25949;DHT22;13961;51.178;4.448;2022-12-29T16:13:20;9.50;99.90
25949;DHT22;13961;51.178;4.448;2022-12-29T16:15:50;9.60;99.90
25949;DHT22;13961;51.178;4.448;2022-12-29T16:18:26;9.50;99.90
25949;DHT22;13961;51.178;4.448;2022-12-29T16:20:53;9.40;99.90
25949;DHT22;13961;51.178;4.448;2022-12-29T16:23:26;9.50;99.90
25949;DHT22;13961;51.178;4.448;2022-12-29T16:25:52;9.20;99.90
25949;DHT22;13961;51.178;4.448;2022-12-29T16:28:26;9.20;99.90
25949;DHT22;13961;51.178;4.448;2022-12-29T16:31:17;9.20;99.90
25949;DHT22;13961;51.178;4.448;2022-12-29T16:33:52;9.30;99.90
25949;DHT22;13961;51.178;4.448;2022-12-29T16:36:31;9.20;99.90
25949;DHT22;13961;51.178;4.448;2022-12-29T16:39:28;9.10;99.90
25949;DHT22;13961;51.178;4.448;2022-12-29T16:41:55;9.10;99.90
25949;DHT22;13961;51.178;4.448;2022-12-29T16:44:29;9.20;99.90
25949;DHT22;13961;51.178;4.448;2022-12-29T16:49:39;9.20;99.90
25949;DHT22;13961;51.178;4.448;2022-12-29T16:52:15;9.00;99.90
25949;DHT22;13961;51.178;4.448;2022-12-29T16:54:57;8.90;99.90
25949;DHT22;13961;51.178;4.448;2022-12-29T16:57:34;8.90;99.90
25949;DHT22;13961;51.178;4.448;2022-12-29T17:00:07;8.90;99.90
25949;DHT22;13961;51.178;4.448;2022-12-29T17:02:43;8.90;99.90
25949;DHT22;13961;51.178;4.448;2022-12-29T17:05:15;8.70;99.90
25949;DHT22;13961;51.178;4.448;2022-12-29T17:07:42;8.70;99.90
25949;DHT22;13961;51.178;4.448;2022-12-29T17:10:08;8.80;99.90
25949;DHT22;13961;51.178;4.448;2022-12-29T17:12:35;8.80;99.90
25949;DHT22;13961;51.178;4.448;2022-12-29T17:15:04;8.80;99.90
25949;DHT22;13961;51.178;4.448;2022-12-29T17:17:49;9.00;99.90
25949;DHT22;13961;51.178;4.448;2022-12-29T17:22:41;8.80;99.90
25949;DHT22;13961;51.178;4.448;2022-12-29T17:25:10;8.80;99.90
25949;DHT22;13961;51.178;4.448;2022-12-29T17:27:41;8.80;99.90
25949;DHT22;13961;51.178;4.448;2022-12-29T17:30:15;9.00;99.90
25949;DHT22;13961;51.178;4.448;2022-12-29T17:32:42;8.90;99.90
25949;DHT22;13961;51.178;4.448;2022-12-29T17:35:21;8.80;99.90
25949;DHT22;13961;51.178;4.448;2022-12-29T17:37:47;8.80;99.90
25949;DHT22;13961;51.178;4.448;2022-12-29T17:40:19;8.90;99.90
25949;DHT22;13961;51.178;4.448;2022-12-29T17:42:49;8.90;99.90
25949;DHT22;13961;51.178;4.448;2022-12-29T17:45:20;8.80;99.90
25949;DHT22;13961;51.178;4.448;2022-12-29T17:47:48;8.80;99.90
25949;DHT22;13961;51.178;4.448;2022-12-29T17:50:19;8.70;99.90
25949;DHT22;13961;51.178;4.448;2022-12-29T17:52:59;9.00;99.90
25949;DHT22;13961;51.178;4.448;2022-12-29T17:55:26;8.80;99.90
25949;DHT22;13961;51.178;4.448;2022-12-29T17:57:52;8.80;99.90
25949;DHT22;13961;51.178;4.448;2022-12-29T18:00:26;8.80;99.90
25949;DHT22;13961;51.178;4.448;2022-12-29T18:02:55;8.80;99.90
25949;DHT22;13961;51.178;4.448;2022-12-29T18:05:27;8.90;99.90
25949;DHT22;13961;51.178;4.448;2022-12-29T18:07:56;8.80;99.90
25949;DHT22;13961;51.178;4.448;2022-12-29T18:10:23;8.80;99.90
25949;DHT22;13961;51.178;4.448;2022-12-29T18:12:51;8.90;99.90
25949;DHT22;13961;51.178;4.448;2022-12-29T18:15:29;9.10;99.90
25949;DHT22;13961;51.178;4.448;2022-12-29T18:18:10;8.90;99.90
25949;DHT22;13961;51.178;4.448;2022-12-29T18:20:37;8.80;99.90